Terminal Aerodrome Forecast
Issued by NWS

Home | Current Version | Previous Version | Text Only | Print | Product List | Glossary Off
Versions: 1 2 3 4 5 6 7 8 9 10 11 12 13 14 15 16 17 18 19 20

000
FTUS42 KMHX 161736
TAFISO
TAF
KISO 161736Z 1618/1718 23015G25KT P6SM SCT025
     FM162200 27015KT P6SM VCSH BKN060
     FM170200 35010KT P6SM VCSH OVC035
     FM170400 35010KT P6SM OVC035
     FM170600 02010KT P6SM OVC025
     FM171000 04010KT P6SM OVC035
     FM171400 06010KT P6SM OVC025
      AMD LTD TO CLD VIS AND WIND=

USA.gov is the U.S. government's official web portal to all federal, state and local government web resources and services.